Swartz Creek, Michigan
Current Conditions -  °F | °C
As of 1:53 AM on Monday 22 Dec 2014 (Local Time) from KFNT Reporting Station
Haze Haze  
Wind Chill: 22°   Ceiling: 5000
Heat Index: 30°   Visibility: 5mi
Dew Point: 23°   Wind: 9mph
Humidity: 75%   Direction: 150°SSE
Pressure: 30.14"   Gusts: NA
Location:  42.96°N, 83.83°W
Report Text: KFNT 220653Z AUTO 15008KT 5SM HZ BKN050 M01/M05 A3014 RMK AO2 SLP215 T10111050
Loading
Personal Weather Stations






























Interactive Weather Map New forecast layout! Learn more

10-Day Weather Forecast

Advertisements
Track Severe Weather on mobile